sensor_id;sensor_type;location;lat;lon;timestamp;P1;durP1;ratioP1;P2;durP2;ratioP2
6997;SDS011;3539;47.982;12.238;2022-10-22T00:02:00;5.47;;;4.10;;
6997;SDS011;3539;47.982;12.238;2022-10-22T00:04:28;6.33;;;5.10;;
6997;SDS011;3539;47.982;12.238;2022-10-22T00:06:56;6.00;;;4.50;;
6997;SDS011;3539;47.982;12.238;2022-10-22T00:09:23;7.90;;;4.27;;
6997;SDS011;3539;47.982;12.238;2022-10-22T00:11:50;5.10;;;4.60;;
6997;SDS011;3539;47.982;12.238;2022-10-22T00:14:19;5.97;;;4.47;;
6997;SDS011;3539;47.982;12.238;2022-10-22T00:16:46;5.03;;;4.20;;
6997;SDS011;3539;47.982;12.238;2022-10-22T00:19:13;5.57;;;3.30;;
6997;SDS011;3539;47.982;12.238;2022-10-22T00:21:39;4.23;;;3.30;;
6997;SDS011;3539;47.982;12.238;2022-10-22T00:24:08;4.00;;;3.10;;
6997;SDS011;3539;47.982;12.238;2022-10-22T00:26:34;3.90;;;3.27;;
6997;SDS011;3539;47.982;12.238;2022-10-22T00:29:03;4.23;;;3.30;;
6997;SDS011;3539;47.982;12.238;2022-10-22T00:31:30;4.57;;;3.50;;
6997;SDS011;3539;47.982;12.238;2022-10-22T00:33:57;4.60;;;3.57;;
6997;SDS011;3539;47.982;12.238;2022-10-22T00:36:24;6.33;;;3.80;;
6997;SDS011;3539;47.982;12.238;2022-10-22T00:38:50;6.13;;;4.13;;
6997;SDS011;3539;47.982;12.238;2022-10-22T00:41:19;4.77;;;3.90;;
6997;SDS011;3539;47.982;12.238;2022-10-22T00:43:52;4.23;;;3.83;;
6997;SDS011;3539;47.982;12.238;2022-10-22T00:46:20;6.53;;;3.80;;
6997;SDS011;3539;47.982;12.238;2022-10-22T00:48:47;4.70;;;4.10;;
6997;SDS011;3539;47.982;12.238;2022-10-22T00:51:14;4.40;;;4.00;;
6997;SDS011;3539;47.982;12.238;2022-10-22T00:53:42;6.10;;;4.23;;
6997;SDS011;3539;47.982;12.238;2022-10-22T00:56:11;5.80;;;4.60;;
6997;SDS011;3539;47.982;12.238;2022-10-22T00:58:40;5.17;;;4.43;;
6997;SDS011;3539;47.982;12.238;2022-10-22T01:01:12;5.83;;;5.00;;
6997;SDS011;3539;47.982;12.238;2022-10-22T01:03:40;5.63;;;5.10;;
6997;SDS011;3539;47.982;12.238;2022-10-22T01:06:09;6.37;;;5.73;;
6997;SDS011;3539;47.982;12.238;2022-10-22T01:08:40;6.13;;;5.37;;
6997;SDS011;3539;47.982;12.238;2022-10-22T01:11:11;7.73;;;5.60;;
6997;SDS011;3539;47.982;12.238;2022-10-22T01:13:47;6.33;;;5.73;;
6997;SDS011;3539;47.982;12.238;2022-10-22T01:16:16;6.87;;;5.43;;
6997;SDS011;3539;47.982;12.238;2022-10-22T01:18:47;6.70;;;5.83;;
6997;SDS011;3539;47.982;12.238;2022-10-22T01:21:22;5.73;;;5.23;;
6997;SDS011;3539;47.982;12.238;2022-10-22T01:26:55;7.13;;;5.40;;
6997;SDS011;3539;47.982;12.238;2022-10-22T01:29:38;7.50;;;5.60;;
6997;SDS011;3539;47.982;12.238;2022-10-22T01:32:08;6.40;;;5.80;;
6997;SDS011;3539;47.982;12.238;2022-10-22T01:34:37;6.17;;;5.57;;
6997;SDS011;3539;47.982;12.238;2022-10-22T01:37:06;6.63;;;5.77;;
6997;SDS011;3539;47.982;12.238;2022-10-22T01:39:33;7.13;;;5.80;;
6997;SDS011;3539;47.982;12.238;2022-10-22T01:42:02;8.33;;;5.70;;
6997;SDS011;3539;47.982;12.238;2022-10-22T01:44:30;6.37;;;5.73;;
6997;SDS011;3539;47.982;12.238;2022-10-22T01:47:02;7.47;;;5.83;;
6997;SDS011;3539;47.982;12.238;2022-10-22T01:49:38;6.43;;;5.60;;
6997;SDS011;3539;47.982;12.238;2022-10-22T01:52:29;7.17;;;6.23;;
6997;SDS011;3539;47.982;12.238;2022-10-22T01:55:07;7.00;;;6.33;;
6997;SDS011;3539;47.982;12.238;2022-10-22T01:57:43;8.53;;;5.83;;
6997;SDS011;3539;47.982;12.238;2022-10-22T02:00:15;8.17;;;6.70;;
6997;SDS011;3539;47.982;12.238;2022-10-22T02:02:46;7.63;;;6.80;;
6997;SDS011;3539;47.982;12.238;2022-10-22T02:05:18;7.30;;;6.57;;
6997;SDS011;3539;47.982;12.238;2022-10-22T02:07:48;6.50;;;5.90;;
6997;SDS011;3539;47.982;12.238;2022-10-22T02:10:17;7.70;;;6.47;;
6997;SDS011;3539;47.982;12.238;2022-10-22T02:12:45;7.13;;;5.93;;
6997;SDS011;3539;47.982;12.238;2022-10-22T02:15:14;7.23;;;5.93;;
6997;SDS011;3539;47.982;12.238;2022-10-22T02:17:41;6.77;;;5.90;;
6997;SDS011;3539;47.982;12.238;2022-10-22T02:20:12;7.43;;;6.20;;
6997;SDS011;3539;47.982;12.238;2022-10-22T02:22:41;6.90;;;5.67;;
6997;SDS011;3539;47.982;12.238;2022-10-22T02:25:08;7.37;;;5.90;;
6997;SDS011;3539;47.982;12.238;2022-10-22T02:27:37;7.80;;;5.17;;
6997;SDS011;3539;47.982;12.238;2022-10-22T02:30:07;5.70;;;5.10;;
6997;SDS011;3539;47.982;12.238;2022-10-22T02:32:37;6.90;;;4.60;;
6997;SDS011;3539;47.982;12.238;2022-10-22T02:35:07;4.87;;;3.90;;
6997;SDS011;3539;47.982;12.238;2022-10-22T02:37:36;6.83;;;3.90;;
6997;SDS011;3539;47.982;12.238;2022-10-22T02:40:04;3.50;;;3.20;;
6997;SDS011;3539;47.982;12.238;2022-10-22T02:42:31;4.73;;;2.90;;
6997;SDS011;3539;47.982;12.238;2022-10-22T02:44:58;3.63;;;2.90;;
6997;SDS011;3539;47.982;12.238;2022-10-22T02:47:25;4.13;;;3.00;;
6997;SDS011;3539;47.982;12.238;2022-10-22T02:49:52;3.20;;;2.90;;
6997;SDS011;3539;47.982;12.238;2022-10-22T02:52:20;3.23;;;2.93;;
6997;SDS011;3539;47.982;12.238;2022-10-22T02:54:47;3.03;;;2.80;;
6997;SDS011;3539;47.982;12.238;2022-10-22T02:57:14;3.33;;;2.80;;
6997;SDS011;3539;47.982;12.238;2022-10-22T02:59:40;4.40;;;2.70;;
6997;SDS011;3539;47.982;12.238;2022-10-22T03:02:07;3.90;;;2.90;;
6997;SDS011;3539;47.982;12.238;2022-10-22T03:04:34;4.83;;;2.57;;
6997;SDS011;3539;47.982;12.238;2022-10-22T03:07:01;3.53;;;2.60;;
6997;SDS011;3539;47.982;12.238;2022-10-22T03:09:29;3.03;;;2.60;;
6997;SDS011;3539;47.982;12.238;2022-10-22T03:11:56;4.10;;;2.95;;
6997;SDS011;3539;47.982;12.238;2022-10-22T03:14:22;3.00;;;2.47;;
6997;SDS011;3539;47.982;12.238;2022-10-22T03:16:49;3.70;;;2.50;;
6997;SDS011;3539;47.982;12.238;2022-10-22T03:19:16;5.00;;;2.70;;
6997;SDS011;3539;47.982;12.238;2022-10-22T03:21:44;3.93;;;2.50;;
6997;SDS011;3539;47.982;12.238;2022-10-22T03:24:13;4.97;;;2.80;;
6997;SDS011;3539;47.982;12.238;2022-10-22T03:26:44;3.60;;;2.50;;
6997;SDS011;3539;47.982;12.238;2022-10-22T03:29:12;3.40;;;2.73;;
6997;SDS011;3539;47.982;12.238;2022-10-22T03:31:40;4.20;;;2.97;;
6997;SDS011;3539;47.982;12.238;2022-10-22T03:34:07;5.40;;;3.40;;
6997;SDS011;3539;47.982;12.238;2022-10-22T03:36:36;4.93;;;4.00;;
6997;SDS011;3539;47.982;12.238;2022-10-22T03:39:02;4.13;;;3.73;;
6997;SDS011;3539;47.982;12.238;2022-10-22T03:41:30;4.00;;;3.37;;
6997;SDS011;3539;47.982;12.238;2022-10-22T03:43:58;5.80;;;3.10;;
6997;SDS011;3539;47.982;12.238;2022-10-22T03:46:25;4.03;;;2.93;;
6997;SDS011;3539;47.982;12.238;2022-10-22T03:48:52;5.33;;;3.67;;
6997;SDS011;3539;47.982;12.238;2022-10-22T03:51:19;4.77;;;3.40;;
6997;SDS011;3539;47.982;12.238;2022-10-22T03:53:46;4.57;;;3.53;;
6997;SDS011;3539;47.982;12.238;2022-10-22T03:56:12;4.00;;;3.33;;
6997;SDS011;3539;47.982;12.238;2022-10-22T03:58:39;5.17;;;3.27;;
6997;SDS011;3539;47.982;12.238;2022-10-22T04:01:08;3.40;;;3.07;;
6997;SDS011;3539;47.982;12.238;2022-10-22T04:03:36;3.70;;;2.83;;
6997;SDS011;3539;47.982;12.238;2022-10-22T04:06:04;6.67;;;2.67;;
6997;SDS011;3539;47.982;12.238;2022-10-22T04:08:32;3.60;;;2.80;;
6997;SDS011;3539;47.982;12.238;2022-10-22T04:11:00;3.37;;;2.67;;
6997;SDS011;3539;47.982;12.238;2022-10-22T04:13:27;4.07;;;3.00;;
6997;SDS011;3539;47.982;12.238;2022-10-22T04:15:53;4.07;;;2.90;;
6997;SDS011;3539;47.982;12.238;2022-10-22T04:18:22;5.33;;;3.00;;
6997;SDS011;3539;47.982;12.238;2022-10-22T04:20:50;4.23;;;2.53;;
6997;SDS011;3539;47.982;12.238;2022-10-22T04:23:17;3.17;;;2.80;;
6997;SDS011;3539;47.982;12.238;2022-10-22T04:25:44;3.87;;;3.23;;
6997;SDS011;3539;47.982;12.238;2022-10-22T04:28:10;3.67;;;3.33;;
6997;SDS011;3539;47.982;12.238;2022-10-22T04:30:37;4.80;;;2.73;;
6997;SDS011;3539;47.982;12.238;2022-10-22T04:33:04;4.33;;;3.30;;
6997;SDS011;3539;47.982;12.238;2022-10-22T04:35:32;4.90;;;3.10;;
6997;SDS011;3539;47.982;12.238;2022-10-22T04:37:59;6.13;;;3.53;;
6997;SDS011;3539;47.982;12.238;2022-10-22T04:40:25;4.17;;;3.43;;
6997;SDS011;3539;47.982;12.238;2022-10-22T04:42:52;5.00;;;3.27;;
6997;SDS011;3539;47.982;12.238;2022-10-22T04:45:19;3.73;;;3.30;;
6997;SDS011;3539;47.982;12.238;2022-10-22T04:47:45;5.57;;;4.97;;
6997;SDS011;3539;47.982;12.238;2022-10-22T04:50:12;8.87;;;6.77;;
6997;SDS011;3539;47.982;12.238;2022-10-22T04:52:40;6.17;;;4.87;;
6997;SDS011;3539;47.982;12.238;2022-10-22T04:55:07;5.43;;;4.33;;
6997;SDS011;3539;47.982;12.238;2022-10-22T04:57:34;4.83;;;3.63;;
6997;SDS011;3539;47.982;12.238;2022-10-22T05:00:01;4.93;;;3.00;;
6997;SDS011;3539;47.982;12.238;2022-10-22T05:02:28;3.67;;;2.20;;
6997;SDS011;3539;47.982;12.238;2022-10-22T05:04:55;4.20;;;3.00;;
6997;SDS011;3539;47.982;12.238;2022-10-22T05:07:22;2.93;;;2.63;;
6997;SDS011;3539;47.982;12.238;2022-10-22T05:09:50;6.47;;;5.07;;
6997;SDS011;3539;47.982;12.238;2022-10-22T05:12:17;2.73;;;2.53;;
6997;SDS011;3539;47.982;12.238;2022-10-22T05:14:43;1.97;;;1.87;;
6997;SDS011;3539;47.982;12.238;2022-10-22T05:17:10;4.17;;;3.87;;
6997;SDS011;3539;47.982;12.238;2022-10-22T05:19:37;6.67;;;6.17;;
6997;SDS011;3539;47.982;12.238;2022-10-22T05:22:04;7.90;;;7.20;;
6997;SDS011;3539;47.982;12.238;2022-10-22T05:24:31;6.63;;;6.13;;
6997;SDS011;3539;47.982;12.238;2022-10-22T05:27:00;5.60;;;4.57;;
6997;SDS011;3539;47.982;12.238;2022-10-22T05:29:27;3.10;;;2.90;;
6997;SDS011;3539;47.982;12.238;2022-10-22T05:31:54;3.53;;;2.90;;
6997;SDS011;3539;47.982;12.238;2022-10-22T05:34:21;2.95;;;2.72;;
6997;SDS011;3539;47.982;12.238;2022-10-22T05:36:48;3.43;;;2.43;;
6997;SDS011;3539;47.982;12.238;2022-10-22T05:39:15;3.20;;;2.20;;
6997;SDS011;3539;47.982;12.238;2022-10-22T05:41:42;1.97;;;1.83;;
6997;SDS011;3539;47.982;12.238;2022-10-22T05:44:10;2.43;;;1.50;;
6997;SDS011;3539;47.982;12.238;2022-10-22T05:46:40;3.30;;;3.10;;
6997;SDS011;3539;47.982;12.238;2022-10-22T05:49:09;5.43;;;5.03;;
6997;SDS011;3539;47.982;12.238;2022-10-22T05:51:38;3.17;;;2.20;;
6997;SDS011;3539;47.982;12.238;2022-10-22T05:54:05;2.33;;;1.67;;
6997;SDS011;3539;47.982;12.238;2022-10-22T05:56:33;2.20;;;1.30;;
6997;SDS011;3539;47.982;12.238;2022-10-22T05:59:00;1.43;;;1.33;;
6997;SDS011;3539;47.982;12.238;2022-10-22T06:01:29;1.57;;;1.40;;
6997;SDS011;3539;47.982;12.238;2022-10-22T06:03:57;1.83;;;1.20;;
6997;SDS011;3539;47.982;12.238;2022-10-22T06:06:26;3.17;;;1.30;;
6997;SDS011;3539;47.982;12.238;2022-10-22T06:08:53;5.30;;;4.30;;
6997;SDS011;3539;47.982;12.238;2022-10-22T06:11:21;34.57;;;24.43;;
6997;SDS011;3539;47.982;12.238;2022-10-22T06:13:49;4.50;;;3.57;;
6997;SDS011;3539;47.982;12.238;2022-10-22T06:16:16;1.93;;;1.73;;
6997;SDS011;3539;47.982;12.238;2022-10-22T06:18:44;1.70;;;1.30;;
6997;SDS011;3539;47.982;12.238;2022-10-22T06:21:12;1.90;;;1.70;;
6997;SDS011;3539;47.982;12.238;2022-10-22T06:23:40;1.43;;;1.33;;
6997;SDS011;3539;47.982;12.238;2022-10-22T06:26:08;2.03;;;1.40;;
6997;SDS011;3539;47.982;12.238;2022-10-22T06:28:35;1.60;;;1.50;;
6997;SDS011;3539;47.982;12.238;2022-10-22T06:31:02;1.73;;;1.53;;
6997;SDS011;3539;47.982;12.238;2022-10-22T06:33:30;1.57;;;1.47;;
6997;SDS011;3539;47.982;12.238;2022-10-22T06:36:04;2.83;;;1.73;;
6997;SDS011;3539;47.982;12.238;2022-10-22T06:38:32;4.17;;;1.70;;
6997;SDS011;3539;47.982;12.238;2022-10-22T06:41:01;2.70;;;2.20;;
6997;SDS011;3539;47.982;12.238;2022-10-22T06:43:28;2.57;;;2.00;;
6997;SDS011;3539;47.982;12.238;2022-10-22T06:45:57;3.53;;;1.83;;
6997;SDS011;3539;47.982;12.238;2022-10-22T06:48:25;1.73;;;1.63;;
6997;SDS011;3539;47.982;12.238;2022-10-22T06:50:52;1.90;;;1.70;;
6997;SDS011;3539;47.982;12.238;2022-10-22T06:53:20;1.60;;;1.50;;
6997;SDS011;3539;47.982;12.238;2022-10-22T06:55:47;2.77;;;1.60;;
6997;SDS011;3539;47.982;12.238;2022-10-22T06:58:14;1.47;;;1.37;;
6997;SDS011;3539;47.982;12.238;2022-10-22T07:00:40;3.07;;;1.50;;
6997;SDS011;3539;47.982;12.238;2022-10-22T07:03:07;1.77;;;1.53;;
6997;SDS011;3539;47.982;12.238;2022-10-22T07:05:37;1.60;;;1.50;;
6997;SDS011;3539;47.982;12.238;2022-10-22T07:08:04;1.50;;;1.40;;
6997;SDS011;3539;47.982;12.238;2022-10-22T07:10:33;1.90;;;1.30;;
6997;SDS011;3539;47.982;12.238;2022-10-22T07:12:59;1.47;;;1.37;;
6997;SDS011;3539;47.982;12.238;2022-10-22T07:15:26;1.50;;;1.40;;
6997;SDS011;3539;47.982;12.238;2022-10-22T07:17:53;2.07;;;1.60;;
6997;SDS011;3539;47.982;12.238;2022-10-22T07:20:20;3.17;;;1.57;;
6997;SDS011;3539;47.982;12.238;2022-10-22T07:22:47;2.13;;;1.60;;
6997;SDS011;3539;47.982;12.238;2022-10-22T07:25:13;1.73;;;1.60;;
6997;SDS011;3539;47.982;12.238;2022-10-22T07:27:41;3.13;;;1.57;;
6997;SDS011;3539;47.982;12.238;2022-10-22T07:30:09;2.07;;;1.60;;
6997;SDS011;3539;47.982;12.238;2022-10-22T07:32:36;2.83;;;1.80;;
6997;SDS011;3539;47.982;12.238;2022-10-22T07:35:03;2.87;;;2.20;;
6997;SDS011;3539;47.982;12.238;2022-10-22T07:37:30;2.10;;;2.00;;
6997;SDS011;3539;47.982;12.238;2022-10-22T07:39:57;3.13;;;2.23;;
6997;SDS011;3539;47.982;12.238;2022-10-22T07:42:24;2.33;;;2.03;;
6997;SDS011;3539;47.982;12.238;2022-10-22T07:44:52;3.20;;;2.00;;
6997;SDS011;3539;47.982;12.238;2022-10-22T07:47:19;2.53;;;2.33;;
6997;SDS011;3539;47.982;12.238;2022-10-22T07:49:45;4.00;;;2.30;;
6997;SDS011;3539;47.982;12.238;2022-10-22T07:52:12;4.40;;;2.20;;
6997;SDS011;3539;47.982;12.238;2022-10-22T07:54:39;3.90;;;2.37;;
6997;SDS011;3539;47.982;12.238;2022-10-22T07:57:06;2.90;;;2.60;;
6997;SDS011;3539;47.982;12.238;2022-10-22T07:59:33;3.53;;;2.60;;
6997;SDS011;3539;47.982;12.238;2022-10-22T08:02:01;2.80;;;2.60;;
6997;SDS011;3539;47.982;12.238;2022-10-22T08:04:28;2.90;;;2.30;;
6997;SDS011;3539;47.982;12.238;2022-10-22T08:06:54;3.20;;;2.23;;
6997;SDS011;3539;47.982;12.238;2022-10-22T08:09:21;2.63;;;2.00;;
6997;SDS011;3539;47.982;12.238;2022-10-22T08:11:49;2.13;;;1.93;;
6997;SDS011;3539;47.982;12.238;2022-10-22T08:14:15;2.30;;;1.90;;
6997;SDS011;3539;47.982;12.238;2022-10-22T08:16:42;2.30;;;1.63;;
6997;SDS011;3539;47.982;12.238;2022-10-22T08:19:12;2.13;;;1.77;;
6997;SDS011;3539;47.982;12.238;2022-10-22T08:21:42;3.93;;;1.70;;
6997;SDS011;3539;47.982;12.238;2022-10-22T08:24:09;2.57;;;1.70;;
6997;SDS011;3539;47.982;12.238;2022-10-22T08:26:36;3.43;;;1.60;;
6997;SDS011;3539;47.982;12.238;2022-10-22T08:29:03;1.93;;;1.70;;
6997;SDS011;3539;47.982;12.238;2022-10-22T08:31:30;2.50;;;1.70;;
6997;SDS011;3539;47.982;12.238;2022-10-22T08:33:57;1.90;;;1.70;;
6997;SDS011;3539;47.982;12.238;2022-10-22T08:36:25;2.47;;;1.70;;
6997;SDS011;3539;47.982;12.238;2022-10-22T08:38:52;1.80;;;1.50;;
6997;SDS011;3539;47.982;12.238;2022-10-22T08:41:19;3.93;;;1.80;;
6997;SDS011;3539;47.982;12.238;2022-10-22T08:43:57;3.27;;;2.87;;
6997;SDS011;3539;47.982;12.238;2022-10-22T08:46:45;4.20;;;1.70;;
6997;SDS011;3539;47.982;12.238;2022-10-22T08:49:19;1.83;;;1.60;;
6997;SDS011;3539;47.982;12.238;2022-10-22T08:51:49;2.00;;;1.70;;
6997;SDS011;3539;47.982;12.238;2022-10-22T08:54:18;2.73;;;1.30;;
6997;SDS011;3539;47.982;12.238;2022-10-22T08:57:03;1.50;;;1.40;;
6997;SDS011;3539;47.982;12.238;2022-10-22T08:59:39;1.60;;;1.50;;
6997;SDS011;3539;47.982;12.238;2022-10-22T09:02:13;1.83;;;1.63;;
6997;SDS011;3539;47.982;12.238;2022-10-22T09:04:55;2.17;;;1.50;;
6997;SDS011;3539;47.982;12.238;2022-10-22T09:07:27;2.25;;;1.60;;
6997;SDS011;3539;47.982;12.238;2022-10-22T09:09:54;1.60;;;1.50;;
6997;SDS011;3539;47.982;12.238;2022-10-22T09:12:23;3.70;;;1.40;;
6997;SDS011;3539;47.982;12.238;2022-10-22T09:14:51;1.87;;;1.37;;
6997;SDS011;3539;47.982;12.238;2022-10-22T09:17:19;1.73;;;1.60;;
6997;SDS011;3539;47.982;12.238;2022-10-22T09:19:53;1.77;;;1.67;;
6997;SDS011;3539;47.982;12.238;2022-10-22T09:22:30;1.60;;;1.50;;
6997;SDS011;3539;47.982;12.238;2022-10-22T09:25:01;1.93;;;1.70;;
6997;SDS011;3539;47.982;12.238;2022-10-22T09:27:36;4.97;;;2.47;;
6997;SDS011;3539;47.982;12.238;2022-10-22T09:30:03;2.83;;;2.40;;
6997;SDS011;3539;47.982;12.238;2022-10-22T09:32:31;1.70;;;1.60;;
6997;SDS011;3539;47.982;12.238;2022-10-22T09:34:58;1.87;;;1.37;;
6997;SDS011;3539;47.982;12.238;2022-10-22T09:37:26;1.50;;;1.40;;
6997;SDS011;3539;47.982;12.238;2022-10-22T09:39:56;2.33;;;1.60;;
6997;SDS011;3539;47.982;12.238;2022-10-22T09:42:24;2.50;;;1.50;;
6997;SDS011;3539;47.982;12.238;2022-10-22T09:44:52;1.50;;;1.40;;
6997;SDS011;3539;47.982;12.238;2022-10-22T09:47:31;1.50;;;1.40;;
6997;SDS011;3539;47.982;12.238;2022-10-22T09:50:11;1.70;;;1.60;;
6997;SDS011;3539;47.982;12.238;2022-10-22T09:52:45;1.90;;;1.70;;
6997;SDS011;3539;47.982;12.238;2022-10-22T09:55:22;3.30;;;1.77;;
6997;SDS011;3539;47.982;12.238;2022-10-22T09:57:51;3.63;;;1.67;;
6997;SDS011;3539;47.982;12.238;2022-10-22T10:00:19;3.03;;;1.80;;
6997;SDS011;3539;47.982;12.238;2022-10-22T10:02:52;2.30;;;1.83;;
6997;SDS011;3539;47.982;12.238;2022-10-22T10:05:23;2.80;;;2.43;;
6997;SDS011;3539;47.982;12.238;2022-10-22T10:07:51;13.90;;;5.37;;
6997;SDS011;3539;47.982;12.238;2022-10-22T10:10:18;15.37;;;6.23;;
6997;SDS011;3539;47.982;12.238;2022-10-22T10:12:59;13.47;;;10.60;;
6997;SDS011;3539;47.982;12.238;2022-10-22T10:15:30;6.97;;;6.27;;
6997;SDS011;3539;47.982;12.238;2022-10-22T10:18:03;9.37;;;7.40;;
6997;SDS011;3539;47.982;12.238;2022-10-22T10:20:37;6.57;;;5.37;;
6997;SDS011;3539;47.982;12.238;2022-10-22T10:23:07;2.47;;;2.27;;
6997;SDS011;3539;47.982;12.238;2022-10-22T10:25:47;2.60;;;2.10;;
6997;SDS011;3539;47.982;12.238;2022-10-22T10:28:20;2.27;;;1.90;;
6997;SDS011;3539;47.982;12.238;2022-10-22T10:30:58;1.70;;;1.60;;
6997;SDS011;3539;47.982;12.238;2022-10-22T10:33:32;1.80;;;1.70;;
6997;SDS011;3539;47.982;12.238;2022-10-22T10:36:05;2.00;;;1.73;;
6997;SDS011;3539;47.982;12.238;2022-10-22T10:38:41;2.90;;;1.63;;
6997;SDS011;3539;47.982;12.238;2022-10-22T10:41:21;2.00;;;1.80;;
6997;SDS011;3539;47.982;12.238;2022-10-22T10:43:58;2.60;;;1.80;;
6997;SDS011;3539;47.982;12.238;2022-10-22T10:46:38;3.50;;;2.20;;
6997;SDS011;3539;47.982;12.238;2022-10-22T10:49:08;2.00;;;1.83;;
6997;SDS011;3539;47.982;12.238;2022-10-22T10:51:41;2.40;;;1.63;;
6997;SDS011;3539;47.982;12.238;2022-10-22T10:54:17;1.77;;;1.63;;
6997;SDS011;3539;47.982;12.238;2022-10-22T10:56:55;3.53;;;3.07;;
6997;SDS011;3539;47.982;12.238;2022-10-22T10:59:28;4.37;;;3.70;;
6997;SDS011;3539;47.982;12.238;2022-10-22T11:02:08;5.33;;;2.47;;
6997;SDS011;3539;47.982;12.238;2022-10-22T11:05:03;4.13;;;2.30;;
6997;SDS011;3539;47.982;12.238;2022-10-22T11:07:48;3.90;;;3.50;;
6997;SDS011;3539;47.982;12.238;2022-10-22T11:10:21;8.03;;;5.90;;
6997;SDS011;3539;47.982;12.238;2022-10-22T11:12:54;4.77;;;4.27;;
6997;SDS011;3539;47.982;12.238;2022-10-22T11:15:26;5.20;;;2.60;;
6997;SDS011;3539;47.982;12.238;2022-10-22T11:17:55;1.80;;;1.70;;
6997;SDS011;3539;47.982;12.238;2022-10-22T11:20:31;2.70;;;2.50;;
6997;SDS011;3539;47.982;12.238;2022-10-22T11:23:04;2.23;;;2.03;;
6997;SDS011;3539;47.982;12.238;2022-10-22T11:25:33;1.50;;;1.40;;
6997;SDS011;3539;47.982;12.238;2022-10-22T11:28:07;4.33;;;2.87;;
6997;SDS011;3539;47.982;12.238;2022-10-22T11:30:37;2.87;;;2.30;;
6997;SDS011;3539;47.982;12.238;2022-10-22T11:33:05;2.60;;;2.10;;
6997;SDS011;3539;47.982;12.238;2022-10-22T11:35:33;3.43;;;2.90;;
6997;SDS011;3539;47.982;12.238;2022-10-22T11:38:00;1.80;;;1.20;;
6997;SDS011;3539;47.982;12.238;2022-10-22T11:40:31;3.30;;;1.53;;
6997;SDS011;3539;47.982;12.238;2022-10-22T11:43:03;1.53;;;1.43;;
6997;SDS011;3539;47.982;12.238;2022-10-22T11:45:34;1.30;;;1.20;;
6997;SDS011;3539;47.982;12.238;2022-10-22T11:48:11;1.43;;;1.20;;
6997;SDS011;3539;47.982;12.238;2022-10-22T11:50:43;0.90;;;0.90;;
6997;SDS011;3539;47.982;12.238;2022-10-22T11:53:18;1.27;;;1.13;;
6997;SDS011;3539;47.982;12.238;2022-10-22T11:55:47;1.30;;;1.20;;
6997;SDS011;3539;47.982;12.238;2022-10-22T12:04:14;1.50;;;1.40;;
6997;SDS011;3539;47.982;12.238;2022-10-22T12:06:53;1.50;;;1.40;;
6997;SDS011;3539;47.982;12.238;2022-10-22T12:09:22;2.50;;;1.60;;
6997;SDS011;3539;47.982;12.238;2022-10-22T12:11:50;1.43;;;1.30;;
6997;SDS011;3539;47.982;12.238;2022-10-22T12:14:18;1.57;;;1.30;;
6997;SDS011;3539;47.982;12.238;2022-10-22T12:16:52;1.23;;;1.13;;
6997;SDS011;3539;47.982;12.238;2022-10-22T12:19:28;1.87;;;1.20;;
6997;SDS011;3539;47.982;12.238;2022-10-22T12:21:56;2.83;;;1.50;;
6997;SDS011;3539;47.982;12.238;2022-10-22T12:24:24;1.90;;;1.30;;
6997;SDS011;3539;47.982;12.238;2022-10-22T12:26:56;1.27;;;1.17;;
6997;SDS011;3539;47.982;12.238;2022-10-22T12:29:23;1.37;;;1.20;;
6997;SDS011;3539;47.982;12.238;2022-10-22T12:31:52;1.40;;;1.10;;
6997;SDS011;3539;47.982;12.238;2022-10-22T12:34:20;1.07;;;0.90;;
6997;SDS011;3539;47.982;12.238;2022-10-22T12:36:49;0.83;;;0.83;;
6997;SDS011;3539;47.982;12.238;2022-10-22T12:39:18;1.10;;;1.00;;
6997;SDS011;3539;47.982;12.238;2022-10-22T12:41:46;0.73;;;0.73;;
6997;SDS011;3539;47.982;12.238;2022-10-22T12:44:13;0.87;;;0.80;;
6997;SDS011;3539;47.982;12.238;2022-10-22T12:46:42;0.87;;;0.87;;
6997;SDS011;3539;47.982;12.238;2022-10-22T12:49:12;1.00;;;0.90;;
6997;SDS011;3539;47.982;12.238;2022-10-22T12:51:51;0.77;;;0.77;;
6997;SDS011;3539;47.982;12.238;2022-10-22T12:54:24;0.63;;;0.60;;
6997;SDS011;3539;47.982;12.238;2022-10-22T12:56:53;2.53;;;0.80;;
6997;SDS011;3539;47.982;12.238;2022-10-22T12:59:23;1.20;;;1.10;;
6997;SDS011;3539;47.982;12.238;2022-10-22T13:01:59;1.00;;;0.90;;
6997;SDS011;3539;47.982;12.238;2022-10-22T13:04:38;1.20;;;1.10;;
6997;SDS011;3539;47.982;12.238;2022-10-22T13:07:15;0.80;;;0.80;;
6997;SDS011;3539;47.982;12.238;2022-10-22T13:09:45;1.13;;;0.80;;
6997;SDS011;3539;47.982;12.238;2022-10-22T13:12:23;1.00;;;0.90;;
6997;SDS011;3539;47.982;12.238;2022-10-22T13:14:50;1.20;;;1.10;;
6997;SDS011;3539;47.982;12.238;2022-10-22T13:17:36;2.43;;;1.10;;
6997;SDS011;3539;47.982;12.238;2022-10-22T13:20:15;2.97;;;1.00;;
6997;SDS011;3539;47.982;12.238;2022-10-22T13:25:43;0.70;;;0.70;;
6997;SDS011;3539;47.982;12.238;2022-10-22T13:28:14;1.07;;;0.97;;
6997;SDS011;3539;47.982;12.238;2022-10-22T13:30:50;1.20;;;1.00;;
6997;SDS011;3539;47.982;12.238;2022-10-22T13:33:24;1.00;;;0.90;;
6997;SDS011;3539;47.982;12.238;2022-10-22T13:36:03;1.03;;;0.93;;
6997;SDS011;3539;47.982;12.238;2022-10-22T13:38:31;1.20;;;1.00;;
6997;SDS011;3539;47.982;12.238;2022-10-22T13:40:58;0.97;;;0.97;;
6997;SDS011;3539;47.982;12.238;2022-10-22T13:43:27;0.80;;;0.80;;
6997;SDS011;3539;47.982;12.238;2022-10-22T13:45:54;1.10;;;1.00;;
6997;SDS011;3539;47.982;12.238;2022-10-22T13:48:23;0.90;;;0.90;;
6997;SDS011;3539;47.982;12.238;2022-10-22T13:50:51;1.20;;;1.10;;
6997;SDS011;3539;47.982;12.238;2022-10-22T13:53:23;1.87;;;1.10;;
6997;SDS011;3539;47.982;12.238;2022-10-22T13:55:53;1.13;;;1.00;;
6997;SDS011;3539;47.982;12.238;2022-10-22T13:58:24;0.80;;;0.80;;
6997;SDS011;3539;47.982;12.238;2022-10-22T14:00:54;1.10;;;0.93;;
6997;SDS011;3539;47.982;12.238;2022-10-22T14:03:24;0.90;;;0.90;;
6997;SDS011;3539;47.982;12.238;2022-10-22T14:06:14;1.23;;;0.90;;
6997;SDS011;3539;47.982;12.238;2022-10-22T14:09:26;1.20;;;1.10;;
6997;SDS011;3539;47.982;12.238;2022-10-22T14:11:57;1.20;;;1.10;;
6997;SDS011;3539;47.982;12.238;2022-10-22T14:14:46;1.10;;;1.00;;
6997;SDS011;3539;47.982;12.238;2022-10-22T14:17:35;0.90;;;0.90;;
6997;SDS011;3539;47.982;12.238;2022-10-22T14:20:03;1.40;;;1.10;;
6997;SDS011;3539;47.982;12.238;2022-10-22T14:22:31;1.33;;;1.00;;
6997;SDS011;3539;47.982;12.238;2022-10-22T14:25:05;2.10;;;1.30;;
6997;SDS011;3539;47.982;12.238;2022-10-22T14:27:34;1.60;;;1.30;;
6997;SDS011;3539;47.982;12.238;2022-10-22T14:30:02;1.73;;;1.10;;
6997;SDS011;3539;47.982;12.238;2022-10-22T14:32:32;1.30;;;1.20;;
6997;SDS011;3539;47.982;12.238;2022-10-22T14:34:59;1.87;;;1.30;;
6997;SDS011;3539;47.982;12.238;2022-10-22T14:37:26;2.43;;;1.20;;
6997;SDS011;3539;47.982;12.238;2022-10-22T14:39:54;1.20;;;1.10;;
6997;SDS011;3539;47.982;12.238;2022-10-22T14:42:27;1.20;;;1.10;;
6997;SDS011;3539;47.982;12.238;2022-10-22T14:44:59;1.57;;;1.40;;
6997;SDS011;3539;47.982;12.238;2022-10-22T14:47:26;2.60;;;1.10;;
6997;SDS011;3539;47.982;12.238;2022-10-22T14:49:54;1.80;;;0.97;;
6997;SDS011;3539;47.982;12.238;2022-10-22T14:52:23;1.50;;;1.20;;
6997;SDS011;3539;47.982;12.238;2022-10-22T14:54:50;1.40;;;1.30;;
6997;SDS011;3539;47.982;12.238;2022-10-22T14:57:17;3.50;;;1.50;;
6997;SDS011;3539;47.982;12.238;2022-10-22T14:59:47;1.40;;;1.20;;
6997;SDS011;3539;47.982;12.238;2022-10-22T15:02:24;2.20;;;1.17;;
6997;SDS011;3539;47.982;12.238;2022-10-22T15:05:06;1.00;;;1.00;;
6997;SDS011;3539;47.982;12.238;2022-10-22T15:07:47;5.17;;;3.83;;
6997;SDS011;3539;47.982;12.238;2022-10-22T15:10:30;2.20;;;2.00;;
6997;SDS011;3539;47.982;12.238;2022-10-22T15:12:58;2.00;;;1.73;;
6997;SDS011;3539;47.982;12.238;2022-10-22T15:15:44;3.37;;;1.20;;
6997;SDS011;3539;47.982;12.238;2022-10-22T15:18:22;3.37;;;1.50;;
6997;SDS011;3539;47.982;12.238;2022-10-22T15:21:07;1.43;;;1.33;;
6997;SDS011;3539;47.982;12.238;2022-10-22T15:23:54;1.30;;;1.20;;
6997;SDS011;3539;47.982;12.238;2022-10-22T15:26:54;1.90;;;1.53;;
6997;SDS011;3539;47.982;12.238;2022-10-22T15:29:32;1.60;;;1.07;;
6997;SDS011;3539;47.982;12.238;2022-10-22T15:32:09;1.53;;;1.43;;